Time;durP1;ratioP1;P1;durP2;ratioP2;P2;SDS_P1;SDS_P2;PMS_P1;PMS_P2;Temp;Humidity;BMP_temperature;BMP_pressure;BME280_temperature;BME280_humidity;BME280_pressure;Samples;Min_cycle;Max_cycle;Signal;HPM_P1;HPM_P2
2021/04/28 00:00:52;;;;;;;13.48;8.40;;;;;;;3.29;97.60;100187.66;1732212;83;21303;-77
2021/04/28 00:03:58;;;;;;;16.10;8.93;;;;;;;3.28;97.45;100192.69;1732392;83;21316;-77
2021/04/28 00:07:04;;;;;;;18.25;10.25;;;;;;;3.27;97.37;100193.68;1732442;83;21869;-77
2021/04/28 00:10:11;;;;;;;12.75;9.70;;;;;;;3.24;97.23;100198.48;1732467;83;21231;-77
2021/04/28 00:13:20;;;;;;;14.73;10.72;;;;;;;3.23;97.20;100211.64;1731597;83;21292;-77
2021/04/28 00:16:26;;;;;;;12.68;8.75;;;;;;;3.20;97.14;100215.48;1732388;83;21312;-77
2021/04/28 00:19:31;;;;;;;11.73;8.80;;;;;;;3.20;97.13;100219.55;1732447;83;21277;-77
2021/04/28 00:22:36;;;;;;;12.65;9.25;;;;;;;3.21;97.16;100205.53;1732078;83;21311;-78
2021/04/28 00:25:42;;;;;;;12.53;9.43;;;;;;;3.22;97.25;100214.84;1718412;83;21202;-77
2021/04/28 00:28:48;;;;;;;13.05;9.75;;;;;;;3.24;97.33;100211.50;1707412;84;21341;-77
2021/04/28 00:31:54;;;;;;;13.00;9.75;;;;;;;3.24;97.43;100211.50;1707368;84;21306;-77
2021/04/28 00:34:53;;;;;;;9.98;7.20;;;;;;;3.25;97.49;100211.89;1707457;84;21902;-78
2021/04/28 00:37:45;;;;;;;11.43;8.20;;;;;;;3.25;97.49;100226.76;1707368;84;21315;-78
2021/04/28 00:40:50;;;;;;;9.83;7.95;;;;;;;3.22;97.44;100223.45;1707512;84;21282;-77
2021/04/28 00:43:56;;;;;;;11.10;7.58;;;;;;;3.21;97.51;100219.89;1707517;84;21334;-78
2021/04/28 00:47:02;;;;;;;10.98;8.05;;;;;;;3.21;97.58;100218.55;1707212;84;21358;-77
2021/04/28 00:50:08;;;;;;;14.33;8.05;;;;;;;3.22;97.64;100220.25;1707385;84;21721;-78
2021/04/28 00:53:13;;;;;;;12.50;8.23;;;;;;;3.24;97.69;100220.11;1720076;81;21316;-78
2021/04/28 00:56:19;;;;;;;9.10;7.08;;;;;;;3.25;97.66;100220.00;1726950;83;21217;-78
2021/04/28 00:59:24;;;;;;;8.28;7.20;;;;;;;3.28;97.69;100218.86;1726944;83;21823;-78
2021/04/28 01:02:30;;;;;;;9.28;7.53;;;;;;;3.25;97.56;100219.14;1726875;83;21194;-78
2021/04/28 01:05:36;;;;;;;12.40;8.28;;;;;;;3.22;97.41;100219.40;1726903;83;21340;-78
2021/04/28 01:08:42;;;;;;;8.55;7.50;;;;;;;3.16;97.27;100218.09;1727017;83;21944;-77
2021/04/28 01:11:47;;;;;;;11.45;8.38;;;;;;;3.09;97.10;100219.58;1727055;83;21178;-78
2021/04/28 01:14:51;;;;;;;11.55;9.45;;;;;;;3.05;97.10;100223.53;1726899;83;21194;-78
2021/04/28 01:17:59;;;;;;;16.62;12.37;;;;;;;3.00;97.06;100225.27;1727097;83;21332;-78
2021/04/28 01:21:04;;;;;;;12.50;10.08;;;;;;;2.94;96.92;100223.09;1727028;83;21284;-78
2021/04/28 01:24:10;;;;;;;13.45;10.38;;;;;;;2.88;96.86;100225.47;1726834;83;21336;-78
2021/04/28 01:27:29;;;;;;;15.70;10.48;;;;;;;2.87;96.91;100227.78;1726971;83;21312;-78
2021/04/28 01:30:40;;;;;;;16.02;11.12;;;;;;;2.85;97.00;100230.63;1727082;83;21185;-78
2021/04/28 01:33:57;;;;;;;14.07;11.43;;;;;;;2.86;97.16;100234.17;1726986;83;21885;-78
2021/04/28 01:37:02;;;;;;;16.70;12.03;;;;;;;2.88;97.26;100238.98;1727091;83;21170;-77
2021/04/28 01:40:09;;;;;;;14.30;10.65;;;;;;;2.88;97.22;100241.68;1726993;83;21859;-78
2021/04/28 01:43:18;;;;;;;16.77;11.97;;;;;;;2.85;97.10;100247.33;1727052;83;21222;-78
2021/04/28 01:46:25;;;;;;;14.90;11.12;;;;;;;2.79;96.90;100243.30;1726939;83;21309;-78
2021/04/28 01:49:32;;;;;;;16.65;12.85;;;;;;;2.73;96.71;100248.73;1727123;83;21316;-78
2021/04/28 01:52:37;;;;;;;22.20;13.20;;;;;;;2.67;96.60;100255.11;1726854;82;21221;-78
2021/04/28 01:55:41;;;;;;;16.97;13.50;;;;;;;2.63;96.57;100250.95;1725514;83;21292;-78
2021/04/28 01:58:51;;;;;;;20.25;13.78;;;;;;;2.58;96.59;100258.08;1721029;83;21344;-78
2021/04/28 02:02:02;;;;;;;19.67;14.25;;;;;;;2.56;96.54;100253.31;1694544;82;21739;-78
2021/04/28 02:05:09;;;;;;;23.95;15.85;;;;;;;2.50;96.42;100256.52;1725478;83;21316;-78
2021/04/28 02:08:15;;;;;;;27.45;17.85;;;;;;;2.42;96.34;100261.69;1708463;83;21869;-78
2021/04/28 02:11:19;;;;;;;23.20;17.65;;;;;;;2.37;96.41;100270.66;1725453;83;21827;-78
2021/04/28 02:14:25;;;;;;;19.52;15.55;;;;;;;2.33;96.46;100274.58;1725448;83;21229;-78
2021/04/28 02:17:41;;;;;;;23.27;16.48;;;;;;;2.28;96.44;100278.51;1708678;83;21181;-78
2021/04/28 02:20:47;;;;;;;22.90;16.27;;;;;;;2.21;96.42;100278.66;1723913;83;21192;-78
2021/04/28 02:23:54;;;;;;;21.93;15.25;;;;;;;2.16;96.43;100282.18;1723507;83;21324;-78
2021/04/28 02:27:04;;;;;;;19.27;14.95;;;;;;;2.12;96.46;100287.48;1725311;83;21700;-78
2021/04/28 02:30:10;;;;;;;20.52;15.68;;;;;;;2.08;96.50;100287.85;1725466;83;21296;-78
2021/04/28 02:33:16;;;;;;;20.12;13.98;;;;;;;2.03;96.52;100302.56;1725288;83;21299;-78
2021/04/28 02:36:50;;;;;;;21.07;14.45;;;;;;;2.00;96.53;100304.64;1725430;83;21344;-78
2021/04/28 02:40:13;;;;;;;20.08;12.95;;;;;;;1.99;96.57;100309.67;1694765;83;21308;-78
2021/04/28 02:43:22;;;;;;;23.85;13.93;;;;;;;1.98;96.62;100306.61;1704244;83;21308;-78
2021/04/28 02:46:29;;;;;;;22.13;14.00;;;;;;;2.03;96.76;100316.55;1725422;83;21344;-78
2021/04/28 02:49:36;;;;;;;18.67;13.62;;;;;;;2.12;96.85;100320.33;1725453;83;21288;-78
2021/04/28 02:52:45;;;;;;;16.02;12.23;;;;;;;2.24;96.89;100318.87;1723475;83;21801;-78
2021/04/28 02:55:51;;;;;;;18.45;14.10;;;;;;;2.40;96.89;100320.33;1725666;81;21198;-78
2021/04/28 02:58:57;;;;;;;18.20;12.60;;;;;;;2.56;96.86;100318.12;1726999;83;21840;-78
2021/04/28 03:02:01;;;;;;;17.67;12.25;;;;;;;2.73;96.56;100331.11;1706535;83;21292;-78
2021/04/28 03:05:06;;;;;;;15.40;11.73;;;;;;;2.90;96.04;100336.95;1727007;83;21304;-78
2021/04/28 03:08:14;;;;;;;15.70;10.70;;;;;;;2.95;95.17;100338.28;1728746;81;21351;-78
2021/04/28 03:11:21;;;;;;;15.55;11.00;;;;;;;2.97;94.24;100342.23;1727003;83;21838;-78
2021/04/28 03:14:29;;;;;;;12.90;10.30;;;;;;;3.02;93.53;100350.81;1726931;83;21296;-78
2021/04/28 03:17:33;;;;;;;12.73;10.48;;;;;;;3.07;92.99;100356.20;1726936;83;21351;-78
2021/04/28 03:20:42;;;;;;;13.45;11.20;;;;;;;3.09;92.25;100361.47;1726948;82;21186;-78
2021/04/28 03:23:48;;;;;;;13.38;10.90;;;;;;;3.07;91.58;100365.66;1747717;81;21328;-78
2021/04/28 03:26:53;;;;;;;14.25;11.08;;;;;;;3.07;91.09;100363.45;1726821;83;21285;-78
2021/04/28 03:30:01;;;;;;;16.52;12.30;;;;;;;3.16;90.91;100366.75;1726950;83;21704;-78
2021/04/28 03:33:05;;;;;;;20.30;12.28;;;;;;;3.28;90.97;100377.87;1726856;83;21300;-78
2021/04/28 03:36:30;;;;;;;22.82;15.43;;;;;;;3.46;91.09;100377.33;1726921;83;21210;-78
2021/04/28 03:39:40;;;;;;;20.77;13.83;;;;;;;3.66;91.16;100380.54;1727284;82;21296;-78
2021/04/28 03:42:45;;;;;;;21.25;14.53;;;;;;;3.85;91.04;100386.09;1727025;83;21870;-77
2021/04/28 03:45:51;;;;;;;20.82;14.35;;;;;;;3.99;90.68;100388.12;1726877;83;21304;-78
2021/04/28 03:48:58;;;;;;;19.32;13.83;;;;;;;4.10;90.36;100386.72;1726736;83;21301;-78
2021/04/28 03:52:03;;;;;;;25.32;15.95;;;;;;;4.25;90.03;100389.44;1706472;83;21296;-78
2021/04/28 03:55:19;;;;;;;21.35;14.07;;;;;;;4.37;89.71;100390.19;1724885;81;21834;-78
2021/04/28 03:58:25;;;;;;;24.10;14.18;;;;;;;4.50;89.46;100383.21;1726930;83;21246;-78
2021/04/28 04:01:32;;;;;;;22.25;14.83;;;;;;;4.65;89.17;100383.70;1726984;83;21328;-78
2021/04/28 04:04:39;;;;;;;24.52;15.23;;;;;;;4.75;88.73;100394.95;1726785;83;21308;-78
2021/04/28 04:07:50;;;;;;;21.35;15.10;;;;;;;4.83;88.24;100387.48;1725386;82;21882;-78
2021/04/28 04:10:57;;;;;;;25.90;15.05;;;;;;;4.87;87.94;100380.79;1726975;83;21304;-78
2021/04/28 04:14:03;;;;;;;21.73;14.05;;;;;;;4.92;87.89;100386.65;1726920;83;21325;-78
2021/04/28 04:17:11;;;;;;;22.45;13.08;;;;;;;4.95;87.71;100396.37;1726849;83;21300;-78
2021/04/28 04:20:17;;;;;;;19.57;12.58;;;;;;;4.93;87.55;100407.84;1728655;81;21312;-78
2021/04/28 04:23:34;;;;;;;15.25;10.28;;;;;;;4.95;88.03;100408.57;1726917;83;21312;-78
2021/04/28 04:26:49;;;;;;;16.90;9.40;;;;;;;5.05;87.98;100421.66;1728877;81;21289;-78
2021/04/28 04:29:56;;;;;;;21.48;13.00;;;;;;;5.16;88.15;100420.17;1693687;80;21182;-78
2021/04/28 04:33:18;;;;;;;18.02;12.60;;;;;;;5.26;87.76;100421.55;1726866;83;21319;-79
2021/04/28 04:36:43;;;;;;;21.07;12.78;;;;;;;5.23;86.79;100434.05;1726936;83;21269;-79
2021/04/28 04:39:53;;;;;;;18.27;11.70;;;;;;;5.24;86.66;100433.91;1709901;82;21201;-79
2021/04/28 04:43:05;;;;;;;21.12;13.22;;;;;;;5.33;86.51;100440.35;1726829;83;21850;-79
2021/04/28 04:46:17;;;;;;;20.75;13.32;;;;;;;5.30;85.57;100440.12;1729892;82;21289;-78
2021/04/28 04:49:23;;;;;;;25.23;15.70;;;;;;;5.21;85.63;100453.16;1726887;83;21345;-79
2021/04/28 04:52:28;;;;;;;20.97;14.53;;;;;;;5.20;85.68;100456.88;1726771;82;21383;-78
2021/04/28 04:55:34;;;;;;;19.82;13.35;;;;;;;5.26;85.91;100466.30;1721566;83;21264;-78
2021/04/28 04:58:40;;;;;;;24.95;16.10;;;;;;;5.27;85.54;100466.66;1676588;84;21330;-78
2021/04/28 05:01:48;;;;;;;24.00;16.50;;;;;;;5.22;85.46;100467.09;1696121;83;21218;-78
2021/04/28 05:04:54;;;;;;;23.77;13.98;;;;;;;5.18;85.70;100469.72;1681617;84;21839;-79
2021/04/28 05:07:59;;;;;;;18.12;12.15;;;;;;;5.18;86.05;100471.08;1692720;83;21318;-79
2021/04/28 05:11:05;;;;;;;11.63;8.68;;;;;;;5.24;86.52;100472.38;1700478;83;21147;-78
2021/04/28 05:14:11;;;;;;;15.53;10.72;;;;;;;5.33;86.35;100477.83;1697251;83;21786;-78
2021/04/28 05:17:18;;;;;;;14.95;10.70;;;;;;;5.43;86.06;100479.70;1698555;83;21277;-85
2021/04/28 05:20:23;;;;;;;12.85;9.70;;;;;;;5.61;86.13;100473.97;1695045;83;21180;-86
2021/04/28 05:23:30;;;;;;;14.03;9.35;;;;;;;5.79;85.95;100480.42;1699838;83;22014;-84
2021/04/28 05:26:47;;;;;;;11.93;8.18;;;;;;;5.88;84.56;100483.64;1681621;83;21296;-84
2021/04/28 05:29:54;;;;;;;12.03;7.37;;;;;;;6.01;84.52;100492.02;1699987;83;21322;-84
2021/04/28 05:32:59;;;;;;;8.85;6.70;;;;;;;6.07;84.09;100495.05;1701180;83;21180;-83
2021/04/28 05:36:05;;;;;;;9.23;7.10;;;;;;;6.17;83.79;100499.11;1698669;84;21305;-85
2021/04/28 05:39:10;;;;;;;10.30;6.78;;;;;;;6.36;83.57;100499.09;1698250;83;21974;-84
2021/04/28 05:42:16;;;;;;;9.70;6.03;;;;;;;6.67;84.37;100498.89;1701977;83;21697;-85
2021/04/28 05:45:22;;;;;;;11.30;6.60;;;;;;;6.84;82.32;100505.44;1702573;83;21802;-85
2021/04/28 05:48:28;;;;;;;14.73;6.35;;;;;;;6.91;81.10;100507.40;1695275;83;21271;-84
2021/04/28 05:51:35;;;;;;;12.70;6.97;;;;;;;6.90;80.31;100502.97;1690180;84;21294;-85
2021/04/28 05:54:40;;;;;;;9.10;4.85;;;;;;;6.97;80.30;100496.97;1635306;86;21307;-85
2021/04/28 05:57:47;;;;;;;6.97;4.08;;;;;;;7.03;80.04;100505.37;1694828;82;21180;-86
2021/04/28 06:00:53;;;;;;;7.17;5.30;;;;;;;6.98;78.15;100504.96;1723802;82;21508;-85
2021/04/28 06:03:59;;;;;;;8.18;4.47;;;;;;;6.96;78.28;100499.30;1712901;82;21282;-85
2021/04/28 06:07:06;;;;;;;7.65;3.50;;;;;;;6.96;78.99;100497.94;1728509;81;21207;-85
2021/04/28 06:10:10;;;;;;;5.22;3.77;;;;;;;7.01;77.58;100495.63;1707154;82;21172;-85
2021/04/28 06:13:15;;;;;;;4.80;3.72;;;;;;;7.07;77.16;100512.23;1727867;82;21279;-85
2021/04/28 06:16:20;;;;;;;6.70;4.40;;;;;;;7.20;78.02;100506.94;1723608;81;21333;-85
2021/04/28 06:19:25;;;;;;;5.90;4.37;;;;;;;7.36;77.57;100512.61;1704458;82;21191;-85
2021/04/28 06:22:31;;;;;;;6.05;4.35;;;;;;;7.47;76.65;100506.09;1727940;82;21364;-86
2021/04/28 06:25:39;;;;;;;4.65;3.75;;;;;;;7.52;76.40;100503.78;1731352;82;21370;-87
2021/04/28 06:28:46;;;;;;;6.03;3.85;;;;;;;7.60;76.29;100509.33;1719288;82;21781;-84
2021/04/28 06:31:51;;;;;;;4.47;3.67;;;;;;;7.71;75.85;100521.36;1720225;82;21889;-85
2021/04/28 06:34:58;;;;;;;4.97;4.00;;;;;;;7.80;75.74;100520.44;1722154;83;21302;-85
2021/04/28 06:38:05;;;;;;;6.03;3.47;;;;;;;7.94;75.04;100522.63;1721268;83;21287;-86
2021/04/28 06:41:11;;;;;;;4.92;3.37;;;;;;;8.12;75.76;100531.33;1701565;81;21371;-85
2021/04/28 06:44:17;;;;;;;7.87;4.03;;;;;;;8.14;71.86;100529.33;1699858;81;21160;-85
2021/04/28 06:47:23;;;;;;;6.30;3.70;;;;;;;8.09;72.57;100535.24;1728570;82;21344;-85
2021/04/28 06:50:30;;;;;;;4.53;3.20;;;;;;;8.24;73.28;100531.47;1725106;81;21145;-85
2021/04/28 06:53:36;;;;;;;6.25;3.67;;;;;;;8.31;69.23;100547.53;1722253;81;21176;-85
2021/04/28 06:56:43;;;;;;;5.60;3.42;;;;;;;8.18;68.95;100552.50;1727787;81;21252;-84
2021/04/28 06:59:51;;;;;;;3.50;3.02;;;;;;;8.05;67.99;100545.24;1705025;82;21310;-84
2021/04/28 07:02:56;;;;;;;5.60;3.75;;;;;;;8.03;69.45;100547.25;1694041;83;21192;-85
2021/04/28 07:06:03;;;;;;;7.30;4.03;;;;;;;8.08;71.68;100545.77;1699114;83;21156;-84
2021/04/28 07:09:09;;;;;;;5.53;3.47;;;;;;;8.11;68.91;100550.06;1692101;83;21358;-84
2021/04/28 07:12:16;;;;;;;6.28;3.90;;;;;;;8.15;68.83;100546.02;1705417;83;21896;-80
2021/04/28 07:15:22;;;;;;;4.53;3.72;;;;;;;8.20;68.89;100557.31;1702545;83;21215;-79
2021/04/28 07:18:29;;;;;;;5.33;3.60;;;;;;;8.15;68.81;100552.83;1666799;84;21220;-80
2021/04/28 07:21:28;;;;;;;5.47;3.72;;;;;;;8.07;70.28;100562.27;1679618;83;21165;-80
2021/04/28 07:24:20;;;;;;;5.00;3.60;;;;;;;8.10;69.40;100566.92;1678955;84;22304;-80
2021/04/28 07:27:06;;;;;;;5.83;3.87;;;;;;;8.11;68.77;100567.77;1719419;82;21833;-79
2021/04/28 07:29:58;;;;;;;5.55;3.67;;;;;;;7.98;67.87;100564.55;1680882;83;21287;-79
2021/04/28 07:32:44;;;;;;;5.58;3.83;;;;;;;7.89;70.42;100563.61;1691285;83;21338;-79
2021/04/28 07:35:43;;;;;;;11.03;3.58;;;;;;;7.96;68.55;100558.42;1701917;83;21332;-79
2021/04/28 07:38:49;;;;;;;4.22;3.42;;;;;;;8.13;69.98;100568.45;1657858;83;21322;-80
2021/04/28 07:41:55;;;;;;;5.17;3.60;;;;;;;8.31;68.43;100566.61;1651768;85;22009;-79
2021/04/28 07:45:04;;;;;;;5.15;3.55;;;;;;;8.43;68.57;100559.95;1671469;84;21275;-78
2021/04/28 07:48:14;;;;;;;5.70;3.83;;;;;;;8.56;67.00;100566.86;1668203;84;21346;-79
2021/04/28 07:51:20;;;;;;;5.72;3.58;;;;;;;8.49;65.38;100560.34;1667163;84;21207;-80
2021/04/28 07:54:27;;;;;;;6.28;4.65;;;;;;;8.54;67.43;100562.94;1668694;84;21303;-80
2021/04/28 07:57:33;;;;;;;4.05;3.37;;;;;;;8.68;66.92;100567.83;1647404;86;21323;-78
2021/04/28 08:00:38;;;;;;;8.08;3.67;;;;;;;8.62;66.33;100569.83;1660562;84;21971;-79
2021/04/28 08:03:44;;;;;;;4.87;3.15;;;;;;;8.58;66.14;100577.12;1655905;85;21326;-78
2021/04/28 08:06:50;;;;;;;4.30;3.33;;;;;;;8.57;66.42;100579.50;1724390;81;21290;-79
2021/04/28 08:09:56;;;;;;;4.15;3.22;;;;;;;8.60;67.22;100579.17;1698693;83;21319;-79
2021/04/28 08:13:08;;;;;;;5.78;3.27;;;;;;;8.69;67.36;100583.68;1723216;81;21748;-78
2021/04/28 08:16:10;;;;;;;5.55;3.40;;;;;;;8.75;66.86;100584.91;1705301;82;21774;-79
2021/04/28 08:19:17;;;;;;;5.53;3.80;;;;;;;8.78;65.34;100577.28;1720836;81;21330;-79
2021/04/28 08:22:22;;;;;;;6.45;3.80;;;;;;;8.76;64.76;100571.14;1717629;81;21292;-79
2021/04/28 08:25:28;;;;;;;11.28;3.80;;;;;;;8.82;65.73;100595.55;1715466;81;21291;-79
2021/04/28 08:28:34;;;;;;;6.92;3.33;;;;;;;8.84;65.81;100572.55;1723376;81;21299;-79
2021/04/28 08:31:39;;;;;;;5.37;3.80;;;;;;;8.85;65.02;100589.80;1691549;83;21184;-78
2021/04/28 08:34:45;;;;;;;4.28;3.25;;;;;;;8.90;64.60;100578.75;1673089;83;21327;-78
2021/04/28 08:37:53;;;;;;;6.97;3.02;;;;;;;9.01;63.52;100583.09;1719897;81;21873;-78
2021/04/28 08:40:58;;;;;;;3.90;2.70;;;;;;;9.07;61.33;100572.03;1719490;81;21295;-80
2021/04/28 08:44:03;;;;;;;4.53;3.62;;;;;;;9.19;61.16;100581.17;1720605;81;21806;-79
2021/04/28 08:47:08;;;;;;;4.10;3.15;;;;;;;9.28;63.03;100583.44;1719358;81;21267;-79
2021/04/28 08:50:15;;;;;;;4.00;3.08;;;;;;;9.28;63.62;100586.17;1718027;83;21170;-80
2021/04/28 08:53:21;;;;;;;5.62;3.55;;;;;;;9.23;63.05;100591.77;1693151;83;21318;-79
2021/04/28 08:56:28;;;;;;;5.33;3.20;;;;;;;9.14;61.33;100593.08;1722896;82;21967;-79
2021/04/28 08:59:34;;;;;;;4.50;2.83;;;;;;;9.18;62.26;100589.02;1721540;81;21886;-79
2021/04/28 09:02:40;;;;;;;3.10;2.80;;;;;;;9.29;61.31;100596.58;1723230;83;21773;-79
2021/04/28 09:05:46;;;;;;;4.22;2.90;;;;;;;9.24;61.02;100587.51;1716640;81;21850;-81
2021/04/28 09:08:57;;;;;;;4.33;3.15;;;;;;;9.18;61.65;100582.19;1723501;82;21164;-85
2021/04/28 09:12:04;;;;;;;4.70;2.80;;;;;;;9.25;61.75;100575.56;1717726;83;21262;-85
2021/04/28 09:15:12;;;;;;;5.00;3.30;;;;;;;9.39;61.87;100579.57;1718034;82;21781;-83
2021/04/28 09:18:27;;;;;;;5.17;3.22;;;;;;;9.43;60.98;100585.06;1719193;82;21334;-81
2021/04/28 09:22:00;;;;;;;8.28;2.77;;;;;;;9.42;60.13;100585.58;1703242;83;21679;-85
2021/04/28 09:25:26;;;;;;;4.67;2.65;;;;;;;9.40;60.60;100577.18;1723108;81;21219;-82
2021/04/28 09:28:44;;;;;;;4.08;2.85;;;;;;;9.46;59.28;100578.77;1723174;82;21253;-82
2021/04/28 09:32:08;;;;;;;4.50;2.95;;;;;;;9.61;60.11;100580.38;1711477;83;21893;-78
2021/04/28 09:35:28;;;;;;;3.20;2.40;;;;;;;9.75;59.29;100576.69;1722855;82;21152;-77
2021/04/28 09:38:34;;;;;;;3.83;2.70;;;;;;;9.87;60.47;100575.34;1728103;81;21271;-84
2021/04/28 09:41:48;;;;;;;4.92;2.90;;;;;;;9.89;60.33;100571.95;1714453;81;21277;-84
2021/04/28 09:44:54;;;;;;;4.12;2.60;;;;;;;9.86;60.12;100568.17;1728084;82;21291;-79
2021/04/28 09:48:00;;;;;;;3.90;2.85;;;;;;;9.88;57.87;100567.01;1713209;82;21293;-79
2021/04/28 09:51:16;;;;;;;6.53;2.67;;;;;;;9.94;57.34;100569.06;1722036;82;21144;-85
2021/04/28 09:54:25;;;;;;;3.75;2.37;;;;;;;10.03;58.17;100563.63;1728572;81;21314;-85
2021/04/28 09:57:53;;;;;;;3.42;2.50;;;;;;;10.10;56.29;100564.14;1706416;82;21173;-84
2021/04/28 10:01:07;;;;;;;2.65;2.30;;;;;;;10.14;56.23;100564.67;1731455;82;21842;-84
2021/04/28 10:04:16;;;;;;;2.85;2.05;;;;;;;10.18;55.67;100556.48;1725345;82;21307;-84
2021/04/28 10:07:31;;;;;;;3.62;2.67;;;;;;;10.26;55.18;100557.91;1730281;82;21645;-84
2021/04/28 10:10:36;;;;;;;3.58;2.62;;;;;;;10.39;56.79;100561.50;1727749;82;21291;-84
2021/04/28 10:13:43;;;;;;;3.27;2.20;;;;;;;10.44;54.64;100554.52;1726041;82;21281;-84
2021/04/28 10:16:49;;;;;;;3.83;2.33;;;;;;;10.44;54.44;100566.83;1727328;82;21209;-84
2021/04/28 10:19:55;;;;;;;4.00;2.80;;;;;;;10.47;54.00;100556.89;1728888;82;21322;-84
2021/04/28 10:23:01;;;;;;;3.72;2.33;;;;;;;10.54;54.12;100554.84;1724330;82;21281;-84
2021/04/28 10:26:07;;;;;;;9.28;2.77;;;;;;;10.58;53.39;100561.69;1724278;82;21283;-84
2021/04/28 10:29:13;;;;;;;3.83;2.42;;;;;;;10.62;52.42;100554.33;1724806;83;21574;-84
2021/04/28 10:32:23;;;;;;;4.45;2.80;;;;;;;10.67;52.63;100548.35;1708009;82;21298;-84
2021/04/28 10:35:29;;;;;;;5.95;3.50;;;;;;;10.80;54.42;100544.59;1710097;82;21809;-84
2021/04/28 10:38:35;;;;;;;2.50;2.08;;;;;;;10.98;52.72;100545.26;1711760;82;21237;-84
2021/04/28 10:41:49;;;;;;;4.65;2.40;;;;;;;11.08;51.26;100549.69;1709249;82;21279;-84
2021/04/28 10:44:54;;;;;;;3.62;2.40;;;;;;;11.04;52.61;100549.70;1725780;82;21900;-84
2021/04/28 10:48:01;;;;;;;2.33;2.10;;;;;;;10.91;50.90;100558.42;1727586;82;21288;-84
2021/04/28 10:51:07;;;;;;;2.92;1.90;;;;;;;10.79;50.93;100562.04;1730598;82;21870;-84
2021/04/28 10:54:31;;;;;;;3.12;1.90;;;;;;;10.78;50.98;100554.86;1724182;82;21181;-84
2021/04/28 10:57:44;;;;;;;3.00;2.20;;;;;;;10.83;50.49;100553.83;1723798;83;21837;-84
2021/04/28 11:00:50;;;;;;;4.50;2.17;;;;;;;10.94;50.50;100543.89;1724491;82;21279;-84
2021/04/28 11:04:00;;;;;;;3.42;2.10;;;;;;;11.13;52.13;100548.14;1716537;82;21209;-84
2021/04/28 11:07:07;;;;;;;4.12;2.30;;;;;;;11.32;50.93;100541.94;1711795;82;21300;-84
2021/04/28 11:10:35;;;;;;;2.83;2.10;;;;;;;11.44;50.57;100546.02;1713682;83;21181;-84
2021/04/28 11:13:41;;;;;;;3.65;1.98;;;;;;;11.48;48.78;100544.12;1710152;83;21845;-84
2021/04/28 11:16:58;;;;;;;3.02;2.00;;;;;;;11.52;48.96;100553.66;1703874;83;21276;-84
2021/04/28 11:20:06;;;;;;;4.15;1.90;;;;;;;11.48;48.33;100550.97;1710099;83;21304;-84
2021/04/28 11:23:29;;;;;;;4.30;2.30;;;;;;;11.46;48.11;100553.53;1710599;82;21291;-84
2021/04/28 11:26:38;;;;;;;4.17;1.92;;;;;;;11.49;48.02;100550.45;1706716;82;21292;-84
2021/04/28 11:29:47;;;;;;;2.83;2.22;;;;;;;11.55;48.50;100542.03;1709379;82;21789;-82
2021/04/28 11:33:33;;;;;;;3.10;2.00;;;;;;;11.65;48.69;100537.20;1713528;82;21274;-83
2021/04/28 11:36:38;;;;;;;2.75;2.02;;;;;;;11.67;49.40;100547.48;1679978;83;21173;-83
2021/04/28 11:39:50;;;;;;;5.67;2.27;;;;;;;11.71;49.95;100551.55;1656932;85;21324;-83
2021/04/28 11:42:54;;;;;;;4.05;2.37;;;;;;;11.63;50.10;100535.16;1656322;85;21340;-82
2021/04/28 11:46:02;;;;;;;4.42;2.30;;;;;;;11.62;49.65;100540.28;1715304;83;21285;-83
2021/04/28 11:49:09;;;;;;;6.00;1.87;;;;;;;11.62;48.76;100541.64;1714356;82;21171;-82
2021/04/28 11:52:16;;;;;;;3.65;1.90;;;;;;;11.58;47.72;100543.91;1693498;82;21355;-84
2021/04/28 11:55:23;;;;;;;2.75;1.90;;;;;;;11.55;46.08;100544.25;1714515;83;21298;-83
2021/04/28 11:58:38;;;;;;;4.20;1.98;;;;;;;11.57;45.37;100530.37;1685007;83;21727;-83
2021/04/28 12:01:43;;;;;;;2.65;2.02;;;;;;;11.64;45.75;100530.02;1681327;83;21550;-84
2021/04/28 12:04:49;;;;;;;4.80;2.15;;;;;;;11.74;47.05;100527.91;1715120;81;21378;-84
2021/04/28 12:07:55;;;;;;;4.70;2.45;;;;;;;11.78;46.95;100540.22;1728832;81;21771;-82
2021/04/28 12:11:03;;;;;;;2.47;2.00;;;;;;;11.87;47.51;100547.92;1721590;81;21201;-82
2021/04/28 12:14:09;;;;;;;;;;;;;;;11.94;47.77;100547.53;1723936;81;21288;-82
2021/04/28 12:17:13;;;;;;;2.85;1.92;;;;;;;11.85;46.67;100534.38;1718582;81;20287;-82
2021/04/28 12:20:28;;;;;;;3.77;2.22;;;;;;;11.81;48.14;100534.39;1721162;83;21797;-82
2021/04/28 12:23:35;;;;;;;4.28;2.15;;;;;;;11.83;46.37;100538.34;1720005;81;21335;-81
2021/04/28 12:26:40;;;;;;;2.85;2.30;;;;;;;11.87;47.88;100545.19;1719353;81;21855;-81
2021/04/28 12:29:50;;;;;;;3.60;2.33;;;;;;;11.76;48.19;100537.67;1723522;83;21299;-81
2021/04/28 12:32:57;;;;;;;2.67;1.77;;;;;;;11.61;46.77;100536.69;1720373;81;21303;-81
2021/04/28 12:36:02;;;;;;;6.47;2.12;;;;;;;11.51;47.58;100541.00;1723091;83;21812;-82
2021/04/28 12:39:07;;;;;;;4.53;1.80;;;;;;;11.45;47.51;100536.24;1727597;81;21315;-81
2021/04/28 12:42:13;;;;;;;2.83;1.75;;;;;;;11.42;46.21;100537.11;1727628;82;21355;-81
2021/04/28 12:45:21;;;;;;;2.95;1.95;;;;;;;11.43;46.95;100527.36;1728269;82;21717;-81
2021/04/28 12:48:28;;;;;;;3.05;2.30;;;;;;;11.41;47.58;100520.34;1733856;82;21308;-81
2021/04/28 12:51:35;;;;;;;3.20;1.67;;;;;;;11.35;47.32;100531.48;1728551;81;21245;-81
2021/04/28 12:54:41;;;;;;;4.17;2.50;;;;;;;11.30;47.51;100526.20;1730097;81;21265;-81
2021/04/28 12:57:46;;;;;;;2.52;1.82;;;;;;;11.24;47.79;100527.73;1733735;81;21259;-81
2021/04/28 13:00:59;;;;;;;6.17;1.98;;;;;;;11.17;47.91;100529.48;1719375;81;21735;-82
2021/04/28 13:04:06;;;;;;;3.60;2.37;;;;;;;11.15;47.35;100535.14;1728331;81;21812;-82
2021/04/28 13:07:27;;;;;;;4.08;1.92;;;;;;;11.17;47.99;100535.81;1724217;82;21315;-82
2021/04/28 13:10:33;;;;;;;4.20;2.17;;;;;;;11.22;47.70;100532.55;1705654;83;21825;-82
2021/04/28 13:13:57;;;;;;;4.65;2.40;;;;;;;11.30;50.55;100531.69;1723186;83;21308;-83
2021/04/28 13:17:04;;;;;;;5.08;2.15;;;;;;;11.30;48.10;100531.69;1715435;82;21824;-82
2021/04/28 13:20:25;;;;;;;3.95;1.98;;;;;;;11.23;47.55;100539.73;1713950;83;21315;-82
2021/04/28 13:23:33;;;;;;;2.22;1.60;;;;;;;11.18;48.02;100540.25;1721430;81;21172;-82
2021/04/28 13:26:38;;;;;;;3.85;1.90;;;;;;;11.17;48.47;100539.06;1683424;83;21335;-82
2021/04/28 13:30:15;;;;;;;5.87;2.35;;;;;;;11.15;48.53;100547.95;1716404;81;21319;-82
2021/04/28 13:33:19;;;;;;;3.17;2.02;;;;;;;11.12;47.94;100537.38;1719015;81;21295;-82
2021/04/28 13:36:44;;;;;;;3.92;1.87;;;;;;;11.07;47.62;100539.78;1722335;81;21805;-82
2021/04/28 13:39:49;;;;;;;6.50;2.27;;;;;;;11.05;50.17;100539.08;1705658;81;21292;-82
2021/04/28 13:42:56;;;;;;;2.10;1.90;;;;;;;11.07;49.58;100539.78;1696737;84;21383;-82
2021/04/28 13:46:01;;;;;;;2.72;2.15;;;;;;;11.08;50.23;100542.84;1700990;83;21173;-82
2021/04/28 13:49:09;;;;;;;4.30;2.27;;;;;;;11.06;48.10;100534.82;1720742;83;21722;-82
2021/04/28 13:52:14;;;;;;;5.92;2.02;;;;;;;11.04;47.51;100538.75;1708293;84;21317;-82
2021/04/28 13:55:20;;;;;;;2.17;1.80;;;;;;;11.00;47.67;100536.86;1708506;84;21323;-82
2021/04/28 13:58:26;;;;;;;3.08;2.22;;;;;;;10.98;48.74;100532.94;1708646;84;21343;-79
2021/04/28 14:01:35;;;;;;;6.58;2.12;;;;;;;10.98;48.60;100541.67;1708897;84;21324;-79
2021/04/28 14:04:40;;;;;;;2.65;1.90;;;;;;;10.98;48.77;100540.30;1708558;84;21212;-79
2021/04/28 14:07:46;;;;;;;2.52;2.02;;;;;;;10.99;46.43;100544.22;1701732;84;21177;-79
2021/04/28 14:10:51;;;;;;;4.15;2.10;;;;;;;10.94;46.73;100539.78;1687547;84;21320;-79
2021/04/28 14:13:56;;;;;;;7.90;2.05;;;;;;;10.89;46.76;100539.97;1702536;84;21316;-79
2021/04/28 14:17:02;;;;;;;3.55;2.00;;;;;;;10.84;47.02;100540.48;1725305;82;21269;-79
2021/04/28 14:20:07;;;;;;;3.50;2.00;;;;;;;10.81;47.75;100538.08;1735362;82;21156;-79
2021/04/28 14:23:14;;;;;;;3.27;2.05;;;;;;;10.78;47.43;100534.86;1736963;82;21260;-79
2021/04/28 14:26:18;;;;;;;4.40;2.20;;;;;;;10.72;45.26;100533.13;1744911;81;21262;-79
2021/04/28 14:29:24;;;;;;;3.90;2.52;;;;;;;10.69;47.29;100525.80;1733958;82;21293;-79
2021/04/28 14:32:32;;;;;;;2.65;1.82;;;;;;;10.69;47.98;100528.53;1722051;82;21311;-79
2021/04/28 14:35:38;;;;;;;3.22;1.87;;;;;;;10.67;46.61;100530.57;1721047;83;21341;-79